Time;durP1;ratioP1;P1;durP2;ratioP2;P2;SDS_P1;SDS_P2;PMS_P1;PMS_P2;Temp;Humidity;BMP_temperature;BMP_pressure;BME280_temperature;BME280_humidity;BME280_pressure;Samples;Min_cycle;Max_cycle;Signal;HPM_P1;HPM_P2
2023/02/05 00:02:26;;;;;;;7.65;4.30;;;;;;;7.87;80.31;98222.94;5054704;28;20088;-57
2023/02/05 00:04:54;;;;;;;7.10;4.25;;;;;;;7.93;78.66;98222.59;5059050;28;20076;-54
2023/02/05 00:07:22;;;;;;;8.20;4.70;;;;;;;7.92;77.63;98220.91;5046437;28;20080;-51
2023/02/05 00:09:52;;;;;;;9.73;4.80;;;;;;;7.92;79.29;98230.56;5052330;28;20477;-58
2023/02/05 00:12:21;;;;;;;7.97;4.30;;;;;;;7.97;79.01;98218.00;5051446;28;20084;-55
2023/02/05 00:14:49;;;;;;;7.93;4.00;;;;;;;7.91;81.10;98223.59;5055804;28;20481;-54
2023/02/05 00:17:18;;;;;;;9.13;4.03;;;;;;;7.85;82.33;98222.19;5050264;28;20414;-54
2023/02/05 00:19:46;;;;;;;10.20;4.82;;;;;;;7.73;86.21;98221.06;5048335;28;20644;-57
2023/02/05 00:22:14;;;;;;;6.68;3.92;;;;;;;7.66;88.84;98221.47;5053317;28;20076;-57
2023/02/05 00:24:43;;;;;;;9.00;4.38;;;;;;;7.58;91.50;98222.75;5056921;28;20556;-54
2023/02/05 00:27:13;;;;;;;7.97;4.00;;;;;;;7.11;100.00;98235.75;5050149;28;20087;-57
2023/02/05 00:29:41;;;;;;;9.20;4.60;;;;;;;6.68;100.00;98237.09;5050684;28;20084;-59
2023/02/05 00:32:09;;;;;;;8.75;4.25;;;;;;;6.79;100.00;98237.41;5049571;28;20513;-57
2023/02/05 00:34:38;;;;;;;8.68;4.53;;;;;;;7.00;100.00;98231.06;5059121;28;20080;-56
2023/02/05 00:37:06;;;;;;;13.18;4.60;;;;;;;6.92;98.54;98240.22;5057598;28;20084;-55
2023/02/05 00:39:34;;;;;;;6.85;4.10;;;;;;;6.96;99.71;98237.38;5052544;28;20088;-55
2023/02/05 00:42:03;;;;;;;6.38;3.80;;;;;;;7.08;97.51;98239.38;5055656;28;20087;-55
2023/02/05 00:44:33;;;;;;;8.65;3.83;;;;;;;7.20;96.92;98243.16;5045508;28;20089;-59
2023/02/05 00:47:01;;;;;;;7.18;4.00;;;;;;;7.28;95.50;98242.75;5056258;28;20122;-59
2023/02/05 00:49:29;;;;;;;8.15;4.38;;;;;;;7.38;94.93;98241.34;5042150;28;20096;-58
2023/02/05 00:51:58;;;;;;;8.48;4.20;;;;;;;7.43;94.71;98243.69;5054461;28;20091;-59
2023/02/05 00:54:26;;;;;;;7.95;4.20;;;;;;;7.43;93.91;98246.31;5051361;28;20145;-58
2023/02/05 00:56:54;;;;;;;7.97;4.07;;;;;;;7.38;90.27;98257.06;5047532;28;20107;-57
2023/02/05 00:59:23;;;;;;;9.18;4.68;;;;;;;7.38;90.53;98243.97;5055923;28;20084;-56
2023/02/05 01:01:52;;;;;;;6.47;4.38;;;;;;;7.22;93.46;98250.94;5047817;28;20077;-54
2023/02/05 01:04:21;;;;;;;6.35;3.88;;;;;;;7.40;94.62;98247.34;5054426;28;20156;-56
2023/02/05 01:06:49;;;;;;;6.50;4.22;;;;;;;7.49;92.14;98246.84;5052277;28;20076;-56
2023/02/05 01:09:18;;;;;;;7.97;4.75;;;;;;;7.19;96.60;98249.34;5058982;28;20114;-58
2023/02/05 01:11:46;;;;;;;7.60;4.90;;;;;;;7.26;91.58;98239.34;5056776;28;20072;-55
2023/02/05 01:14:14;;;;;;;7.22;3.90;;;;;;;7.39;95.33;98237.75;5059175;28;20080;-51
2023/02/05 01:16:43;;;;;;;26.83;10.45;;;;;;;7.32;94.67;98233.78;5054676;28;20088;-55
2023/02/05 01:19:12;;;;;;;42.55;17.35;;;;;;;6.85;96.27;98235.31;5046981;28;20595;-56
2023/02/05 01:21:41;;;;;;;37.10;13.67;;;;;;;6.94;100.00;98235.75;5056513;28;20072;-56
2023/02/05 01:24:09;;;;;;;22.55;9.63;;;;;;;6.99;99.23;98228.53;5054196;28;20091;-58
2023/02/05 01:26:37;;;;;;;18.25;8.25;;;;;;;6.93;98.19;98229.66;5053304;28;20087;-59
2023/02/05 01:29:06;;;;;;;16.73;7.75;;;;;;;6.73;99.13;98225.44;5054745;28;20076;-56
2023/02/05 01:31:34;;;;;;;37.90;15.32;;;;;;;6.59;100.00;98220.88;5052916;28;20073;-55
2023/02/05 01:34:03;;;;;;;61.10;24.50;;;;;;;6.98;100.00;98218.94;5057044;28;20084;-59
2023/02/05 01:36:33;;;;;;;58.80;22.50;;;;;;;6.93;99.41;98213.94;5056414;28;20076;-51
2023/02/05 01:39:01;;;;;;;33.00;14.90;;;;;;;7.03;96.21;98212.53;5059931;28;20462;-56
2023/02/05 01:41:29;;;;;;;17.35;7.97;;;;;;;6.52;100.00;98229.13;5058803;28;20507;-55
2023/02/05 01:44:08;;;;;;;10.13;5.25;;;;;;;6.31;100.00;98229.25;5060532;28;20064;-56
2023/02/05 01:46:38;;;;;;;9.02;4.85;;;;;;;6.25;100.00;98218.22;5062399;28;20103;-57
2023/02/05 01:49:08;;;;;;;6.82;4.47;;;;;;;6.36;100.00;98226.41;5062048;28;20537;-54
2023/02/05 01:51:38;;;;;;;7.18;4.72;;;;;;;6.33;100.00;98226.53;5059364;28;20083;-54
2023/02/05 01:54:07;;;;;;;8.35;4.80;;;;;;;6.11;100.00;98229.38;5055647;28;20083;-55
2023/02/05 01:56:37;;;;;;;6.85;3.80;;;;;;;5.61;100.00;98230.78;5055560;28;20072;-57
2023/02/05 01:59:08;;;;;;;9.13;4.88;;;;;;;6.39;100.00;98231.50;5054961;28;20075;-55
2023/02/05 02:01:37;;;;;;;9.18;4.88;;;;;;;6.57;100.00;98225.38;5051722;28;20701;-57
2023/02/05 02:04:06;;;;;;;8.02;4.82;;;;;;;6.48;100.00;98232.84;5053246;28;20114;-57
2023/02/05 02:06:35;;;;;;;8.00;4.80;;;;;;;6.34;100.00;98229.13;5053524;28;20080;-52
2023/02/05 02:09:06;;;;;;;9.80;4.40;;;;;;;6.39;100.00;98221.84;5050148;28;20080;-58
2023/02/05 02:11:38;;;;;;;8.15;4.40;;;;;;;6.67;100.00;98210.00;5052318;28;20076;-50
2023/02/05 02:14:08;;;;;;;10.25;5.57;;;;;;;6.45;100.00;98214.63;5052051;28;20079;-57
2023/02/05 02:16:38;;;;;;;22.42;10.13;;;;;;;6.49;100.00;98208.31;5055331;28;20083;-53
2023/02/05 02:19:12;;;;;;;17.10;8.60;;;;;;;6.49;100.00;98213.56;5057342;28;20088;-53
2023/02/05 02:22:03;;;;;;;7.70;4.82;;;;;;;6.22;100.00;98208.72;5056419;28;20079;-54
2023/02/05 02:24:47;;;;;;;8.68;5.13;;;;;;;6.38;100.00;98209.69;5050202;28;20084;-56
2023/02/05 02:27:34;;;;;;;14.50;7.07;;;;;;;6.41;100.00;98200.84;5053862;28;20085;-57
2023/02/05 02:30:08;;;;;;;17.50;8.15;;;;;;;6.15;100.00;98200.31;5059925;28;20647;-59
2023/02/05 02:32:39;;;;;;;13.90;7.55;;;;;;;6.50;100.00;98192.50;5051386;28;20079;-60
2023/02/05 02:35:11;;;;;;;14.55;7.90;;;;;;;6.41;100.00;98198.22;5061054;28;20091;-53
2023/02/05 02:37:45;;;;;;;11.15;6.28;;;;;;;6.44;100.00;98197.22;5050269;28;20077;-53
2023/02/05 02:40:18;;;;;;;9.32;5.43;;;;;;;6.22;100.00;98198.25;5053428;28;20083;-57
2023/02/05 02:42:53;;;;;;;8.60;5.38;;;;;;;6.14;100.00;98195.16;5054452;28;20084;-57
2023/02/05 02:45:23;;;;;;;8.50;4.93;;;;;;;6.08;100.00;98193.69;5053604;28;20076;-57
2023/02/05 02:47:53;;;;;;;7.57;4.68;;;;;;;6.09;100.00;98184.94;5056498;28;20091;-57
2023/02/05 02:50:22;;;;;;;;;;;;;;;6.20;100.00;98183.56;5061286;28;20089;-57
2023/02/05 02:52:52;;;;;;;9.05;5.38;;;;;;;6.07;100.00;98178.91;5058700;28;20030;-56
2023/02/05 02:55:21;;;;;;;11.57;5.60;;;;;;;5.99;100.00;98182.78;5053651;28;20540;-56
2023/02/05 02:57:51;;;;;;;8.32;4.65;;;;;;;5.59;100.00;98188.13;5053145;28;20118;-57
2023/02/05 03:00:23;;;;;;;11.30;5.30;;;;;;;4.89;100.00;98189.53;5050235;28;20083;-55
2023/02/05 03:02:54;;;;;;;9.00;5.00;;;;;;;5.34;100.00;98180.56;5054265;28;20126;-52
2023/02/05 03:05:24;;;;;;;10.35;5.45;;;;;;;5.50;100.00;98195.56;5050729;28;20073;-59
2023/02/05 03:07:55;;;;;;;10.93;5.30;;;;;;;5.21;100.00;98190.72;5052892;28;20087;-56
2023/02/05 03:10:26;;;;;;;11.02;5.22;;;;;;;5.22;100.00;98187.19;5051182;28;20077;-54
2023/02/05 03:12:56;;;;;;;8.90;4.88;;;;;;;4.95;100.00;98178.78;5050952;28;20079;-57
2023/02/05 03:15:25;;;;;;;9.70;5.80;;;;;;;5.34;100.00;98172.72;5053938;28;20059;-53
2023/02/05 03:17:55;;;;;;;8.73;4.97;;;;;;;5.41;100.00;98171.50;5053427;28;20072;-57
2023/02/05 03:20:26;;;;;;;10.93;5.90;;;;;;;5.53;100.00;98158.78;5054396;28;20575;-56
2023/02/05 03:22:55;;;;;;;8.93;5.38;;;;;;;5.46;100.00;98156.44;5060938;28;20060;-57
2023/02/05 03:25:25;;;;;;;8.25;5.35;;;;;;;5.48;100.00;98152.00;5053541;28;20080;-55
2023/02/05 03:27:55;;;;;;;13.25;5.88;;;;;;;5.20;100.00;98151.56;5054559;28;20075;-53
2023/02/05 03:30:28;;;;;;;9.93;5.10;;;;;;;5.20;100.00;98149.81;5051143;28;20084;-55
2023/02/05 03:33:01;;;;;;;7.78;5.10;;;;;;;4.53;100.00;98158.00;5064272;28;20512;-57
2023/02/05 03:35:36;;;;;;;9.30;5.88;;;;;;;4.61;100.00;98145.47;5058841;28;20091;-54
2023/02/05 03:38:19;;;;;;;9.50;5.55;;;;;;;4.68;100.00;98140.78;5048811;28;20490;-54
2023/02/05 03:40:52;;;;;;;9.07;5.28;;;;;;;4.60;100.00;98145.50;5057732;28;20076;-53
2023/02/05 03:43:31;;;;;;;10.00;5.43;;;;;;;4.52;100.00;98148.47;5052844;28;20113;-56
2023/02/05 03:46:03;;;;;;;9.10;5.13;;;;;;;4.66;100.00;98148.72;5034385;28;20448;-57
2023/02/05 03:48:39;;;;;;;7.82;5.10;;;;;;;4.83;100.00;98144.53;5051433;28;20087;-58
2023/02/05 03:51:22;;;;;;;8.18;5.05;;;;;;;4.89;100.00;98141.66;5058889;28;20072;-57
2023/02/05 03:54:00;;;;;;;8.88;5.35;;;;;;;4.84;100.00;98151.44;5055587;28;20547;-55
2023/02/05 03:56:33;;;;;;;9.57;5.30;;;;;;;4.87;100.00;98154.75;5053234;28;20088;-57
2023/02/05 03:59:03;;;;;;;11.13;5.65;;;;;;;4.56;100.00;98159.63;5054704;28;20087;-52
2023/02/05 04:01:32;;;;;;;11.75;5.90;;;;;;;4.28;100.00;98168.63;5051034;28;20106;-54
2023/02/05 04:04:00;;;;;;;12.25;5.72;;;;;;;4.51;100.00;98170.28;5053336;28;20067;-61
2023/02/05 04:06:29;;;;;;;9.45;5.22;;;;;;;4.82;100.00;98174.16;5053720;28;20076;-57
2023/02/05 04:08:57;;;;;;;9.23;5.20;;;;;;;5.00;100.00;98165.53;5057814;28;20092;-56
2023/02/05 04:11:25;;;;;;;9.80;4.90;;;;;;;5.03;100.00;98154.09;5057252;28;20080;-57
2023/02/05 04:13:54;;;;;;;8.88;5.68;;;;;;;4.89;100.00;98154.72;5053353;28;20072;-55
2023/02/05 04:16:23;;;;;;;7.93;5.20;;;;;;;4.95;100.00;98152.66;5050406;28;20094;-50
2023/02/05 04:18:52;;;;;;;8.68;5.55;;;;;;;4.88;100.00;98140.78;5051205;28;20084;-52
2023/02/05 04:21:20;;;;;;;7.35;5.43;;;;;;;4.65;100.00;98143.56;5055378;28;20078;-56
2023/02/05 04:23:49;;;;;;;9.23;5.47;;;;;;;4.34;100.00;98152.72;5052399;28;20542;-59
2023/02/05 04:26:17;;;;;;;9.38;5.45;;;;;;;3.94;100.00;98141.28;5057378;28;20084;-57
2023/02/05 04:28:45;;;;;;;9.45;5.32;;;;;;;3.78;100.00;98140.19;5049883;28;20592;-56
2023/02/05 04:31:14;;;;;;;10.20;5.22;;;;;;;3.80;100.00;98141.00;5058625;28;20080;-59
2023/02/05 04:33:44;;;;;;;7.65;4.30;;;;;;;4.18;100.00;98135.97;5052394;28;20077;-55
2023/02/05 04:36:14;;;;;;;7.18;4.88;;;;;;;4.30;100.00;98145.88;5055699;28;20091;-56
2023/02/05 04:38:42;;;;;;;9.50;5.53;;;;;;;4.41;100.00;98129.78;5048574;28;20080;-53
2023/02/05 04:41:11;;;;;;;8.40;5.00;;;;;;;4.15;100.00;98123.88;5053213;28;20080;-57
2023/02/05 04:43:39;;;;;;;7.45;5.47;;;;;;;3.73;100.00;98129.94;5052970;28;20107;-51
2023/02/05 04:46:08;;;;;;;7.72;5.28;;;;;;;3.62;100.00;98128.69;5055576;28;20081;-59
2023/02/05 04:48:37;;;;;;;10.10;5.25;;;;;;;3.62;100.00;98123.47;5051722;28;21979;-55
2023/02/05 04:51:08;;;;;;;9.55;5.53;;;;;;;3.81;100.00;98122.66;5047169;28;20081;-54
2023/02/05 04:53:37;;;;;;;10.43;5.60;;;;;;;3.89;100.00;98119.75;5053799;28;20541;-59
2023/02/05 04:56:07;;;;;;;8.40;5.70;;;;;;;4.19;100.00;98119.38;5050220;28;20077;-57
2023/02/05 04:58:35;;;;;;;10.00;5.68;;;;;;;4.17;100.00;98119.47;5050525;28;20085;-56
2023/02/05 05:01:04;;;;;;;8.38;5.63;;;;;;;4.16;100.00;98120.34;5059281;28;20472;-58
2023/02/05 05:03:33;;;;;;;9.93;5.68;;;;;;;4.13;100.00;98120.50;5060522;28;20087;-58
2023/02/05 05:06:04;;;;;;;9.20;5.32;;;;;;;4.16;100.00;98119.50;5060707;28;20713;-57
2023/02/05 05:08:33;;;;;;;10.65;5.07;;;;;;;4.18;100.00;98117.69;5057962;28;20079;-56
2023/02/05 05:11:06;;;;;;;8.13;5.22;;;;;;;3.97;100.00;98101.16;5060990;28;20083;-57
2023/02/05 05:13:35;;;;;;;11.00;6.30;;;;;;;3.64;100.00;98112.03;5050033;28;20083;-52
2023/02/05 05:16:04;;;;;;;10.65;5.70;;;;;;;3.13;100.00;98112.31;5055198;28;20095;-59
2023/02/05 05:18:32;;;;;;;10.07;6.70;;;;;;;3.22;100.00;98115.41;5053279;28;20471;-56
2023/02/05 05:21:01;;;;;;;9.52;6.28;;;;;;;3.64;100.00;98103.38;5056017;28;20083;-54
2023/02/05 05:23:29;;;;;;;10.93;5.97;;;;;;;3.48;100.00;98114.44;5055243;28;20603;-55
2023/02/05 05:25:59;;;;;;;9.10;5.80;;;;;;;3.06;100.00;98112.56;5054470;28;20544;-53
2023/02/05 05:28:31;;;;;;;11.35;7.55;;;;;;;3.11;100.00;98117.59;5056474;28;20449;-57
2023/02/05 05:31:00;;;;;;;9.65;6.18;;;;;;;3.29;100.00;98118.66;5049723;28;20087;-51
2023/02/05 05:33:28;;;;;;;10.25;5.95;;;;;;;3.46;100.00;98104.97;5058721;28;20555;-55
2023/02/05 05:35:56;;;;;;;9.25;5.95;;;;;;;3.12;100.00;98121.88;5050798;28;20073;-58
2023/02/05 05:38:25;;;;;;;8.68;5.82;;;;;;;3.60;100.00;98118.28;5052795;28;20094;-52
2023/02/05 05:43:53;;;;;;;9.13;5.85;;;;;;;3.61;100.00;98112.16;4992102;28;20089;-58
2023/02/05 05:46:24;;;;;;;9.75;6.20;;;;;;;3.69;100.00;98111.88;5047700;28;20076;-56
2023/02/05 05:48:54;;;;;;;9.80;6.75;;;;;;;4.04;100.00;98116.50;5055705;28;20076;-55
2023/02/05 05:51:23;;;;;;;9.10;6.35;;;;;;;3.97;100.00;98115.06;5053186;28;21916;-52
2023/02/05 05:53:52;;;;;;;8.75;6.47;;;;;;;4.05;100.00;98123.41;5056886;28;20072;-57
2023/02/05 05:56:20;;;;;;;10.27;6.40;;;;;;;4.14;100.00;98122.19;5055740;28;20088;-56
2023/02/05 05:58:50;;;;;;;9.45;6.15;;;;;;;4.09;100.00;98116.31;5057065;28;20092;-53
2023/02/05 06:01:21;;;;;;;9.07;6.25;;;;;;;4.09;100.00;98121.53;5057163;28;20076;-56
2023/02/05 06:03:50;;;;;;;8.90;6.07;;;;;;;3.43;100.00;98121.56;5054726;28;20067;-55
2023/02/05 06:06:18;;;;;;;10.65;6.50;;;;;;;3.59;100.00;98123.59;5052000;28;20084;-56
2023/02/05 06:08:47;;;;;;;10.55;7.82;;;;;;;3.85;100.00;98120.75;5056041;28;20064;-56
2023/02/05 06:11:15;;;;;;;10.73;7.85;;;;;;;3.86;100.00;98114.66;5062907;28;20087;-56
2023/02/05 06:13:44;;;;;;;9.63;7.30;;;;;;;3.91;100.00;98115.31;5046655;28;20460;-57
2023/02/05 06:16:12;;;;;;;8.63;7.35;;;;;;;4.04;100.00;98113.88;5057151;28;20080;-57
2023/02/05 06:18:42;;;;;;;10.57;7.38;;;;;;;3.92;100.00;98118.75;5055719;28;20092;-57
2023/02/05 06:21:10;;;;;;;10.23;7.80;;;;;;;3.86;100.00;98117.28;5051721;28;20528;-55
2023/02/05 06:23:39;;;;;;;11.43;7.82;;;;;;;4.03;100.00;98121.81;5056991;28;20084;-56
2023/02/05 06:26:07;;;;;;;11.02;7.68;;;;;;;4.32;100.00;98119.72;5057887;28;20080;-54
2023/02/05 06:28:36;;;;;;;8.38;7.28;;;;;;;4.46;100.00;98119.97;5056147;28;20095;-55
2023/02/05 06:31:04;;;;;;;10.40;7.60;;;;;;;4.16;100.00;98130.78;5059332;28;20076;-56
2023/02/05 06:33:33;;;;;;;11.00;7.95;;;;;;;4.36;100.00;98129.97;5055932;28;20095;-56
2023/02/05 06:36:03;;;;;;;10.27;7.20;;;;;;;4.32;100.00;98136.25;5055197;28;20073;-55
2023/02/05 06:38:31;;;;;;;9.98;7.65;;;;;;;3.96;100.00;98139.47;5052049;28;20081;-57
2023/02/05 06:40:59;;;;;;;11.90;7.75;;;;;;;3.95;100.00;98144.72;5056622;28;20514;-55
2023/02/05 06:43:28;;;;;;;9.82;8.45;;;;;;;3.93;100.00;98142.19;5051687;28;20524;-57
2023/02/05 06:45:56;;;;;;;11.60;8.73;;;;;;;3.91;100.00;98149.22;5056786;28;20076;-56
2023/02/05 06:48:25;;;;;;;11.77;8.38;;;;;;;3.87;100.00;98145.06;5053625;28;20535;-56
2023/02/05 06:50:53;;;;;;;9.48;6.40;;;;;;;3.88;100.00;98143.28;5051329;28;20733;-57
2023/02/05 06:53:23;;;;;;;11.00;7.13;;;;;;;3.96;100.00;98141.25;5051311;28;20081;-56
2023/02/05 06:55:51;;;;;;;8.70;6.07;;;;;;;3.96;100.00;98141.25;5057300;28;20083;-57
2023/02/05 06:58:19;;;;;;;10.75;5.88;;;;;;;3.88;100.00;98146.75;5040863;28;20185;-56
2023/02/05 07:00:48;;;;;;;9.35;6.55;;;;;;;3.94;100.00;98156.94;5054968;28;20076;-56
2023/02/05 07:03:16;;;;;;;9.95;6.47;;;;;;;3.73;100.00;98145.59;5054199;28;20075;-58
2023/02/05 07:05:45;;;;;;;9.15;6.82;;;;;;;3.79;100.00;98147.97;5055485;28;20077;-54
2023/02/05 07:08:13;;;;;;;10.65;6.60;;;;;;;4.07;100.00;98139.03;5053009;28;20179;-52
2023/02/05 07:10:43;;;;;;;10.75;6.07;;;;;;;4.18;100.00;98138.59;5059131;28;20068;-54
2023/02/05 07:13:11;;;;;;;11.10;8.23;;;;;;;4.27;100.00;98135.59;5048898;28;20072;-53
2023/02/05 07:15:40;;;;;;;10.20;6.00;;;;;;;4.36;100.00;98137.81;5052319;28;20071;-53
2023/02/05 07:18:08;;;;;;;10.20;6.65;;;;;;;4.45;100.00;98132.19;5060194;28;20084;-55
2023/02/05 07:20:36;;;;;;;8.75;6.32;;;;;;;4.47;100.00;98132.13;5053729;28;20092;-55
2023/02/05 07:23:05;;;;;;;10.48;6.97;;;;;;;4.56;100.00;98133.50;5055352;28;20156;-56
2023/02/05 07:25:36;;;;;;;10.82;6.75;;;;;;;4.55;100.00;98130.03;5056483;28;20095;-53
2023/02/05 07:28:08;;;;;;;9.02;6.28;;;;;;;4.66;100.00;98126.97;5054043;28;20319;-51
2023/02/05 07:30:36;;;;;;;10.27;6.45;;;;;;;4.50;100.00;98118.94;5054672;28;20073;-60
2023/02/05 07:33:05;;;;;;;10.15;5.97;;;;;;;3.60;100.00;98140.94;5058790;28;20092;-55
2023/02/05 07:35:36;;;;;;;9.23;6.90;;;;;;;4.07;100.00;98139.03;5049879;28;20084;-58
2023/02/05 07:38:05;;;;;;;8.15;6.10;;;;;;;4.43;100.00;98141.00;5056431;28;20072;-54
2023/02/05 07:40:33;;;;;;;9.60;6.47;;;;;;;4.43;100.00;98128.78;5050953;28;20091;-53
2023/02/05 07:43:02;;;;;;;9.55;6.80;;;;;;;4.72;100.00;98121.47;5058339;28;20053;-58
2023/02/05 07:45:32;;;;;;;10.20;6.97;;;;;;;4.80;100.00;98128.97;5058520;28;20079;-57
2023/02/05 07:48:01;;;;;;;10.10;6.93;;;;;;;5.09;100.00;98136.34;5053430;28;20564;-57
2023/02/05 07:50:29;;;;;;;12.60;8.25;;;;;;;5.23;100.00;98128.75;5053183;28;20032;-56
2023/02/05 07:52:57;;;;;;;14.93;8.63;;;;;;;5.00;100.00;98121.09;5057245;28;20068;-52
2023/02/05 07:55:26;;;;;;;14.30;9.07;;;;;;;5.11;100.00;98126.69;5059092;28;20080;-55
2023/02/05 07:57:54;;;;;;;15.20;9.60;;;;;;;5.38;100.00;98131.56;5051095;28;20087;-57
2023/02/05 08:00:23;;;;;;;10.30;7.97;;;;;;;5.22;100.00;98132.25;5053523;28;20096;-58
2023/02/05 08:02:53;;;;;;;10.65;7.13;;;;;;;5.10;100.00;98130.22;5033245;28;20072;-55
2023/02/05 08:05:21;;;;;;;15.02;8.15;;;;;;;5.13;100.00;98130.09;5054670;28;20088;-57
2023/02/05 08:07:50;;;;;;;12.18;7.75;;;;;;;4.99;100.00;98128.09;5054553;28;20076;-58
2023/02/05 08:10:18;;;;;;;11.40;7.75;;;;;;;5.09;100.00;98135.50;5057285;28;20064;-52
2023/02/05 08:12:47;;;;;;;12.73;8.00;;;;;;;5.43;100.00;98132.19;5057055;28;20591;-56
2023/02/05 08:15:15;;;;;;;11.05;7.50;;;;;;;5.67;100.00;98135.41;5050482;28;20068;-58
2023/02/05 08:17:44;;;;;;;13.02;7.45;;;;;;;5.84;100.00;98135.47;5058765;28;20080;-56
2023/02/05 08:20:14;;;;;;;13.52;7.70;;;;;;;6.01;100.00;98141.69;5052270;28;20329;-57
2023/02/05 08:22:44;;;;;;;12.35;9.25;;;;;;;5.90;100.00;98139.56;5050787;28;20080;-59
2023/02/05 08:25:14;;;;;;;11.85;8.40;;;;;;;6.10;100.00;98134.22;5058165;28;20075;-54
2023/02/05 08:27:42;;;;;;;13.38;9.57;;;;;;;6.07;100.00;98133.53;5053392;28;20068;-56
2023/02/05 08:30:13;;;;;;;12.40;8.40;;;;;;;6.03;100.00;98124.97;5059358;28;20080;-54
2023/02/05 08:32:42;;;;;;;15.25;8.75;;;;;;;6.31;100.00;98118.38;5051924;28;20079;-58
2023/02/05 08:35:10;;;;;;;13.40;8.80;;;;;;;6.61;100.00;98110.72;5054708;28;20076;-58
2023/02/05 08:37:40;;;;;;;13.35;8.43;;;;;;;6.70;100.00;98098.91;5057085;28;20075;-57
2023/02/05 08:40:10;;;;;;;12.48;8.00;;;;;;;6.96;100.00;98105.41;5054814;28;20552;-55
2023/02/05 08:42:38;;;;;;;10.85;8.10;;;;;;;7.22;100.00;98101.34;5064296;28;20092;-51
2023/02/05 08:45:08;;;;;;;12.55;8.30;;;;;;;7.40;100.00;98075.88;5054373;28;20152;-55
2023/02/05 08:47:37;;;;;;;13.98;8.60;;;;;;;7.51;99.10;98076.16;5057176;28;20089;-60
2023/02/05 08:50:06;;;;;;;10.13;7.72;;;;;;;7.61;100.00;98072.06;5057578;28;20547;-51
2023/02/05 08:52:34;;;;;;;10.13;6.97;;;;;;;7.10;100.00;98074.03;5049768;28;20096;-55
2023/02/05 08:55:05;;;;;;;10.48;5.65;;;;;;;7.70;97.34;98061.03;5057434;28;20052;-59
2023/02/05 08:57:34;;;;;;;10.82;5.93;;;;;;;6.89;100.00;98061.13;5055132;28;20080;-57
2023/02/05 09:00:02;;;;;;;10.55;5.65;;;;;;;7.44;96.74;98056.44;5064721;28;20513;-52
2023/02/05 09:02:31;;;;;;;9.45;5.07;;;;;;;7.52;96.07;98054.22;5052491;28;20700;-56
2023/02/05 09:04:59;;;;;;;8.70;5.35;;;;;;;7.46;100.00;98049.28;5052506;28;20072;-56
2023/02/05 09:07:37;;;;;;;8.27;5.20;;;;;;;7.47;100.00;98045.75;5062379;28;20329;-52
2023/02/05 09:10:08;;;;;;;11.38;5.57;;;;;;;6.80;100.00;98056.38;5048584;28;20087;-55
2023/02/05 09:12:37;;;;;;;8.48;5.55;;;;;;;6.89;100.00;98057.69;5056218;28;20064;-53
2023/02/05 09:15:06;;;;;;;9.00;5.43;;;;;;;7.68;100.00;98046.31;5045319;28;20077;-57
2023/02/05 09:17:34;;;;;;;7.57;4.05;;;;;;;6.74;100.00;98043.59;5062095;28;20516;-56
2023/02/05 09:20:03;;;;;;;6.75;3.60;;;;;;;7.74;86.50;98035.44;5060110;28;20076;-57
2023/02/05 09:22:31;;;;;;;7.32;3.85;;;;;;;8.00;87.45;98033.94;5057027;28;20073;-57
2023/02/05 09:25:00;;;;;;;5.05;3.63;;;;;;;8.02;85.62;98034.72;5047330;28;20080;-57
2023/02/05 09:27:30;;;;;;;4.30;2.80;;;;;;;8.41;68.46;98030.69;5060145;28;20088;-56
2023/02/05 09:29:58;;;;;;;5.80;3.70;;;;;;;8.10;70.03;98027.22;5055563;28;20092;-55
2023/02/05 09:32:27;;;;;;;4.55;3.38;;;;;;;8.96;66.33;98027.28;5057237;28;20077;-55
2023/02/05 09:34:55;;;;;;;4.00;2.70;;;;;;;7.57;74.69;98041.66;5062757;28;20076;-58
2023/02/05 09:37:23;;;;;;;6.03;3.20;;;;;;;8.08;73.37;98043.06;5061080;28;20091;-57
2023/02/05 09:39:52;;;;;;;6.10;3.50;;;;;;;8.01;71.06;98039.09;5051665;28;20080;-53
2023/02/05 09:42:45;;;;;;;6.82;3.60;;;;;;;8.09;73.79;98038.66;5057495;28;20064;-57
2023/02/05 09:45:23;;;;;;;4.75;3.00;;;;;;;8.54;68.71;98034.25;5062668;28;20400;-57
2023/02/05 09:47:58;;;;;;;5.88;3.50;;;;;;;7.25;73.99;98036.44;5051964;28;20072;-58
2023/02/05 09:50:28;;;;;;;4.38;3.28;;;;;;;7.94;67.49;98024.63;5056390;28;20075;-54
2023/02/05 09:53:00;;;;;;;5.55;3.13;;;;;;;7.92;77.54;98020.41;5056040;28;20084;-57
2023/02/05 09:55:31;;;;;;;3.78;2.90;;;;;;;7.14;80.65;98025.69;5059334;28;20087;-55
2023/02/05 09:58:06;;;;;;;6.78;3.05;;;;;;;8.64;68.01;98008.25;5057268;28;20485;-54
2023/02/05 10:00:41;;;;;;;4.28;2.90;;;;;;;7.91;66.90;98002.94;5049301;28;21205;-52
2023/02/05 10:03:19;;;;;;;4.80;2.90;;;;;;;7.57;76.29;98000.53;5059353;28;20071;-57
2023/02/05 10:05:59;;;;;;;4.82;2.95;;;;;;;8.34;71.17;97988.09;5052853;28;20569;-59
2023/02/05 10:08:33;;;;;;;4.20;2.80;;;;;;;9.51;58.56;97973.75;5058130;28;20091;-56
2023/02/05 10:11:05;;;;;;;6.20;2.88;;;;;;;9.15;59.02;97983.09;5053604;28;20171;-55
2023/02/05 10:13:37;;;;;;;6.75;3.40;;;;;;;8.86;63.33;97977.03;5059263;28;20559;-58
2023/02/05 10:16:32;;;;;;;3.75;2.90;;;;;;;8.06;71.69;97957.41;5057179;28;20551;-56
2023/02/05 10:19:14;;;;;;;5.47;3.10;;;;;;;8.34;70.98;97964.44;5055614;28;20077;-56
2023/02/05 10:21:55;;;;;;;5.40;2.80;;;;;;;8.84;66.89;97952.59;5056424;28;20072;-56
2023/02/05 10:24:33;;;;;;;5.78;3.20;;;;;;;8.54;65.56;97952.75;5058474;28;20092;-56
2023/02/05 10:27:12;;;;;;;4.07;3.00;;;;;;;9.18;62.30;97953.06;5056839;28;20084;-57
2023/02/05 10:29:47;;;;;;;4.88;3.08;;;;;;;8.23;68.31;97957.22;5055367;28;20092;-58
2023/02/05 10:32:21;;;;;;;4.35;2.67;;;;;;;8.39;65.36;97954.53;5054232;28;20475;-59
2023/02/05 10:34:55;;;;;;;4.18;2.47;;;;;;;9.09;68.18;97954.53;5051713;28;20083;-53
2023/02/05 10:37:38;;;;;;;6.65;3.20;;;;;;;9.01;64.16;97951.53;5054081;28;20492;-58
2023/02/05 10:40:12;;;;;;;4.45;2.78;;;;;;;8.94;63.90;97945.81;5055579;28;20081;-58
2023/02/05 10:42:45;;;;;;;3.80;2.72;;;;;;;9.72;61.50;97934.59;5056423;28;20080;-57
2023/02/05 10:45:18;;;;;;;5.60;3.00;;;;;;;9.78;57.67;97934.19;5054028;28;20103;-58
2023/02/05 10:47:56;;;;;;;4.13;2.92;;;;;;;10.07;56.28;97929.56;5057173;28;20087;-58
2023/02/05 10:50:27;;;;;;;3.85;2.47;;;;;;;9.44;60.94;97928.53;5046556;28;20096;-58
2023/02/05 10:52:56;;;;;;;3.83;2.78;;;;;;;9.29;59.75;97921.66;5053763;28;20076;-58
2023/02/05 10:55:24;;;;;;;4.88;3.10;;;;;;;10.77;56.33;97900.06;5053340;28;20521;-57
2023/02/05 10:57:53;;;;;;;4.82;2.97;;;;;;;10.53;55.31;97907.94;5057530;28;20087;-56
2023/02/05 11:00:23;;;;;;;48.72;18.80;;;;;;;11.10;53.26;97901.22;5055042;28;20084;-58
2023/02/05 11:02:54;;;;;;;6.03;3.78;;;;;;;11.12;51.72;97910.72;5055838;28;21098;-57
2023/02/05 11:05:26;;;;;;;5.20;2.95;;;;;;;11.65;50.77;97897.94;5053456;28;20084;-58
2023/02/05 11:07:54;;;;;;;6.43;2.92;;;;;;;12.13;48.73;97891.69;5054192;28;20084;-55
2023/02/05 11:10:25;;;;;;;5.40;2.90;;;;;;;10.45;52.86;97899.72;5055964;28;20508;-56
2023/02/05 11:12:55;;;;;;;3.28;2.35;;;;;;;10.67;52.07;97896.41;5048134;28;20088;-54
2023/02/05 11:15:26;;;;;;;4.55;3.08;;;;;;;11.56;49.34;97889.84;5050904;28;20168;-58
2023/02/05 11:17:56;;;;;;;3.92;2.78;;;;;;;12.21;47.66;97877.88;5055048;28;20076;-55
2023/02/05 11:20:28;;;;;;;4.10;2.95;;;;;;;12.04;49.24;97881.81;5056339;28;20471;-57
2023/02/05 11:23:16;;;;;;;5.03;2.80;;;;;;;11.65;48.48;97882.09;5049990;28;20084;-55
2023/02/05 11:25:53;;;;;;;6.78;2.58;;;;;;;11.16;49.64;97891.03;5051335;28;20083;-59
2023/02/05 11:28:24;;;;;;;5.45;2.65;;;;;;;12.42;46.82;97883.28;5051417;28;20079;-58
2023/02/05 11:30:54;;;;;;;4.13;2.60;;;;;;;12.59;45.96;97877.47;5054513;28;20085;-55
2023/02/05 11:33:26;;;;;;;3.65;2.47;;;;;;;13.04;46.48;97877.38;5058236;28;20099;-56
2023/02/05 11:35:56;;;;;;;4.45;2.80;;;;;;;13.28;45.59;97882.50;5050400;28;20072;-57
2023/02/05 11:38:30;;;;;;;4.25;2.80;;;;;;;12.74;45.78;97875.44;5051920;28;20083;-58
2023/02/05 11:41:00;;;;;;;4.28;2.58;;;;;;;13.28;44.73;97872.78;5048774;28;20182;-56
2023/02/05 11:43:31;;;;;;;4.88;2.70;;;;;;;12.88;45.66;97885.75;5053363;28;20075;-57
2023/02/05 11:46:03;;;;;;;4.47;2.75;;;;;;;13.23;44.53;97877.56;5052938;28;20071;-56
2023/02/05 11:48:35;;;;;;;4.22;2.60;;;;;;;13.56;44.10;97872.25;5050714;28;20084;-58
2023/02/05 11:51:05;;;;;;;3.95;2.65;;;;;;;12.90;44.46;97875.84;5052746;28;20544;-59